Kezdőlap
METAR-TAF:

METAR-TAF

Repülőterek :

Rodrigues, Mauritius

földrajzi szélesség: 19-41S, földrajzi hosszúság: 063-25E, magasság: 58 m

Jelenlegi meteorológiai megfigyelések

A jelentés 22 órával és 56 perccel ezelõtt készült, 03:00 UTC
Kelet-délkeleti szél 18 kt
Hőmérséklet 23°C
Páratartalom 69%
Légköri nyomás 1021 hPa
Látótávolság 10 km, vagy több
Szakadozott felhőzet 1700 lábon

METAR: FIMR 210300Z 12018KT 9999 BKN017 23/17 Q1021

Idő: 05:56 (01:56 UTC)

Előrejelzés

A jelentés 2 órával és 21 perccel ezelõtt készült, 23:35 UTC
Az előrejelzés 22-én 00 óra UTC és 22-én 18 óra UTC között érvényes
Kelet-délkeleti szél 20 kt széllökések: 30 kt
Látótávolság 10 km, vagy több
Szórványos felhőzet 1800 lábon
22-én 00 óra UTC és 22-én 04 óra UTC között ideiglenes
Látótávolság: 7000 m
Kevés felhő 1000 lábon
Szakadozott felhőzet 1600 lábon
enyhe záporok,

TAF: FIMR 212335Z 2200/2218 12020G30KT 9999 SCT018 TEMPO 2200/2204 7000 -SHRA FEW010 BKN016

Meteorológiai megfigyelések és előrejelzések több, mint 4000 repülőtéren (METAR és TAF jelentéseket).

A térképen piros és sárga pontok jelzik az elérhető meteorológiai állomásokat.

Mozgassa az egeret a pont fölött, hogy megjelenjen az állomás neve.

Azután kattintson az időjárási megfigyelések és előrejelzések megtekintéséhez.

A térkép megváltoztatása: kattintson a fekete keresztel jelölt zöld gombra ráközelítéshez, a vonallal jelölt zöld gombra távolításhoz, vagy a zöld nyilakra a szomszédos térképek eléréséhez.


METAR-TAF: